createdAt,value
2022-12-11T00:00:56.258Z,17.67
2022-12-11T00:01:58.186Z,16.73
2022-12-11T00:03:01.154Z,20.83
2022-12-11T00:04:03.273Z,22.95
2022-12-11T00:05:07.056Z,20.85
2022-12-11T00:06:10.652Z,22.02
2022-12-11T00:07:13.556Z,18.77
2022-12-11T00:08:15.623Z,18.67
2022-12-11T00:09:18.958Z,26.17
2022-12-11T00:10:20.884Z,18.60
2022-12-11T00:11:25.599Z,21.98
2022-12-11T00:12:27.583Z,20.40
2022-12-11T00:13:30.691Z,19.10
2022-12-11T00:14:33.081Z,17.67
2022-12-11T00:15:39.016Z,22.77
2022-12-11T00:16:40.967Z,22.85
2022-12-11T00:17:43.871Z,18.77
2022-12-11T00:18:45.803Z,21.73
2022-12-11T00:19:48.792Z,20.20
2022-12-11T00:20:50.766Z,17.23
2022-12-11T00:21:53.670Z,17.15
2022-12-11T00:22:55.532Z,21.15
2022-12-11T00:23:58.452Z,20.02
2022-12-11T00:25:02.353Z,19.83
2022-12-11T00:26:06.905Z,17.02
2022-12-11T00:27:11.625Z,19.05
2022-12-11T00:28:15.724Z,19.85
2022-12-11T00:29:18.569Z,19.65
2022-12-11T00:30:20.419Z,18.85
2022-12-11T00:31:24.411Z,15.13
2022-12-11T00:32:28.456Z,20.15
2022-12-11T00:33:31.743Z,21.95
2022-12-11T00:34:33.592Z,21.70
2022-12-11T00:35:40.133Z,17.35
2022-12-11T00:36:42.073Z,19.35
2022-12-11T00:37:45.277Z,16.05
2022-12-11T00:38:48.794Z,17.75
2022-12-11T00:39:51.770Z,18.98
2022-12-11T00:40:53.671Z,17.90
2022-12-11T00:41:56.512Z,18.05
2022-12-11T00:42:59.970Z,17.20
2022-12-11T00:44:02.983Z,16.05
2022-12-11T00:45:05.617Z,18.33
2022-12-11T00:46:09.034Z,21.63
2022-12-11T00:47:10.994Z,17.45
2022-12-11T00:48:14.457Z,18.88
2022-12-11T00:49:18.029Z,18.10
2022-12-11T00:50:19.959Z,16.73
2022-12-11T00:51:22.891Z,19.15
2022-12-11T00:52:24.770Z,20.50
2022-12-11T00:53:28.094Z,19.40
2022-12-11T00:54:31.480Z,14.50
2022-12-11T00:55:37.301Z,17.33
2022-12-11T00:56:40.529Z,19.10
2022-12-11T00:57:42.770Z,16.60
2022-12-11T00:58:48.935Z,14.35
2022-12-11T00:59:51.832Z,17.30
2022-12-11T01:00:54.071Z,18.38
2022-12-11T01:01:57.001Z,16.67
2022-12-11T01:02:59.039Z,15.57
2022-12-11T01:04:02.152Z,14.60
2022-12-11T01:05:04.730Z,16.20
2022-12-11T01:06:08.950Z,16.40
2022-12-11T01:07:11.839Z,15.05
2022-12-11T01:08:13.873Z,13.88
2022-12-11T01:09:34.309Z,17.83
2022-12-11T01:10:37.223Z,15.15
2022-12-11T01:11:41.180Z,16.30
2022-12-11T01:12:43.099Z,15.85
2022-12-11T01:13:47.376Z,19.70
2022-12-11T01:14:49.220Z,16.40
2022-12-11T01:15:52.165Z,20.60
2022-12-11T01:16:54.045Z,16.15
2022-12-11T01:17:57.528Z,16.88
2022-12-11T01:19:00.958Z,20.35
2022-12-11T01:20:04.279Z,13.88
2022-12-11T01:21:08.455Z,13.75
2022-12-11T01:22:10.381Z,16.05
2022-12-11T01:23:14.441Z,13.15
2022-12-11T01:24:16.339Z,14.25
2022-12-11T01:25:19.499Z,13.70
2022-12-11T01:26:21.720Z,17.33
2022-12-11T01:27:24.685Z,18.08
2022-12-11T01:28:26.638Z,17.95
2022-12-11T01:29:31.033Z,15.95
2022-12-11T01:30:33.372Z,17.15
2022-12-11T01:31:36.281Z,16.90
2022-12-11T01:32:38.166Z,15.82
2022-12-11T01:33:41.751Z,21.30
2022-12-11T01:34:43.694Z,13.75
2022-12-11T01:35:46.790Z,16.65
2022-12-11T01:36:48.666Z,15.40
2022-12-11T01:37:51.551Z,13.88
2022-12-11T01:38:54.523Z,14.75
2022-12-11T01:39:57.594Z,14.98
2022-12-11T01:40:59.499Z,13.93
2022-12-11T01:42:02.706Z,11.73
2022-12-11T01:43:04.640Z,12.57
2022-12-11T01:44:09.602Z,16.80
2022-12-11T01:45:35.081Z,15.68
2022-12-11T01:46:38.496Z,12.27
2022-12-11T01:47:40.691Z,12.98
2022-12-11T01:48:43.701Z,15.93
2022-12-11T01:49:45.661Z,14.40
2022-12-11T01:50:51.720Z,15.48
2022-12-11T01:51:58.925Z,13.20
2022-12-11T01:53:02.476Z,18.80
2022-12-11T01:54:08.834Z,14.82
2022-12-11T01:55:10.962Z,15.27
2022-12-11T01:56:14.339Z,16.23
2022-12-11T01:57:16.587Z,12.48
2022-12-11T01:58:21.153Z,16.13
2022-12-11T01:59:27.279Z,15.00
2022-12-11T02:00:30.506Z,15.45
2022-12-11T02:01:37.080Z,12.48
2022-12-11T02:02:40.273Z,14.18
2022-12-11T02:03:42.616Z,16.20
2022-12-11T02:04:46.962Z,16.85
2022-12-11T02:05:50.111Z,13.77
2022-12-11T02:06:53.106Z,17.73
2022-12-11T02:07:59.419Z,16.60
2022-12-11T02:09:02.383Z,14.98
2022-12-11T02:10:06.401Z,14.38
2022-12-11T02:11:14.602Z,13.63
2022-12-11T02:12:25.837Z,16.70
2022-12-11T02:13:35.252Z,11.90
2022-12-11T02:14:44.035Z,13.15
2022-12-11T02:15:52.120Z,16.02
2022-12-11T02:16:58.394Z,16.90
2022-12-11T02:18:13.282Z,13.55
2022-12-11T02:19:31.025Z,13.38
2022-12-11T02:20:38.578Z,15.23
2022-12-11T02:21:46.250Z,15.55
2022-12-11T02:23:04.900Z,17.25
2022-12-11T02:24:39.235Z,14.75
2022-12-11T02:25:52.346Z,13.23
2022-12-11T02:27:12.399Z,14.32
2022-12-11T02:28:21.188Z,13.40
2022-12-11T02:29:31.599Z,15.18
2022-12-11T02:30:35.684Z,11.35
2022-12-11T02:31:42.657Z,12.43
2022-12-11T02:32:48.708Z,14.80
2022-12-11T02:33:58.595Z,15.82
2022-12-11T02:35:07.245Z,11.75
2022-12-11T02:36:11.104Z,16.55
2022-12-11T02:37:19.903Z,13.45
2022-12-11T02:38:28.567Z,15.75
2022-12-11T02:39:33.447Z,11.48
2022-12-11T02:40:40.761Z,10.15
2022-12-11T02:41:46.848Z,12.43
2022-12-11T02:42:51.683Z,12.63
2022-12-11T02:43:57.858Z,14.77
2022-12-11T02:45:02.642Z,15.52
2022-12-11T02:46:08.104Z,12.63
2022-12-11T02:47:15.029Z,15.45
2022-12-11T02:48:17.830Z,13.70
2022-12-11T02:49:22.434Z,14.15
2022-12-11T02:50:28.102Z,14.05
2022-12-11T02:51:36.350Z,16.15
2022-12-11T02:52:40.576Z,14.93
2022-12-11T02:53:43.836Z,13.52
2022-12-11T02:54:48.802Z,14.05
2022-12-11T02:55:58.442Z,14.75
2022-12-11T02:57:07.358Z,12.57
2022-12-11T02:58:14.533Z,15.13
2022-12-11T02:59:24.867Z,15.52
2022-12-11T03:00:28.143Z,16.17
2022-12-11T03:01:30.273Z,12.55
2022-12-11T03:02:33.461Z,15.00
2022-12-11T03:03:35.475Z,15.68
2022-12-11T03:04:38.908Z,15.55
2022-12-11T03:05:41.676Z,12.93
2022-12-11T03:06:50.177Z,14.02
2022-12-11T03:07:52.129Z,12.13
2022-12-11T03:08:55.056Z,15.48
2022-12-11T03:09:57.093Z,13.48
2022-12-11T03:11:00.238Z,11.85
2022-12-11T03:12:02.334Z,12.43
2022-12-11T03:13:05.971Z,14.73
2022-12-11T03:14:08.545Z,16.42
2022-12-11T03:15:16.188Z,10.82
2022-12-11T03:16:29.608Z,10.88
2022-12-11T03:17:39.671Z,16.77
2022-12-11T03:18:49.649Z,15.65
2022-12-11T03:20:01.690Z,13.82
2022-12-11T03:21:08.313Z,12.68
2022-12-11T03:22:13.566Z,13.55
2022-12-11T03:23:21.604Z,10.65
2022-12-11T03:24:31.582Z,13.30
2022-12-11T03:25:42.138Z,12.63
2022-12-11T03:26:56.214Z,12.90
2022-12-11T03:28:05.704Z,15.07
2022-12-11T03:29:15.108Z,13.65
2022-12-11T03:30:20.011Z,16.40
2022-12-11T03:31:28.533Z,14.65
2022-12-11T03:32:39.634Z,11.80
2022-12-11T03:33:44.742Z,19.17
2022-12-11T03:34:58.180Z,10.98
2022-12-11T03:36:05.504Z,11.50
2022-12-11T03:37:10.573Z,12.60
2022-12-11T03:38:17.269Z,14.95
2022-12-11T03:39:24.691Z,11.63
2022-12-11T03:40:28.801Z,13.95
2022-12-11T03:41:34.356Z,12.55
2022-12-11T03:42:38.826Z,14.32
2022-12-11T03:43:42.621Z,10.55
2022-12-11T03:44:48.022Z,13.52
2022-12-11T03:45:54.847Z,12.32
2022-12-11T03:47:00.065Z,15.70
2022-12-11T03:48:04.303Z,11.48
2022-12-11T03:49:10.792Z,14.35
2022-12-11T03:50:17.596Z,12.35
2022-12-11T03:51:21.697Z,13.52
2022-12-11T03:52:27.314Z,13.35
2022-12-11T03:53:29.685Z,11.77
2022-12-11T03:54:32.855Z,13.95
2022-12-11T03:55:37.884Z,12.77
2022-12-11T03:56:42.575Z,12.45
2022-12-11T03:57:45.004Z,15.52
2022-12-11T03:58:48.037Z,14.80
2022-12-11T03:59:50.200Z,14.48
2022-12-11T04:00:54.582Z,13.77
2022-12-11T04:01:56.548Z,12.05
2022-12-11T04:03:14.976Z,14.52
2022-12-11T04:04:17.570Z,15.02
2022-12-11T04:05:20.499Z,16.85
2022-12-11T04:06:22.486Z,11.50
2022-12-11T04:07:25.410Z,12.18
2022-12-11T04:08:27.397Z,13.52
2022-12-11T04:09:30.389Z,14.88
2022-12-11T04:10:32.327Z,14.73
2022-12-11T04:11:39.575Z,11.90
2022-12-11T04:12:41.572Z,15.82
2022-12-11T04:13:44.464Z,14.85
2022-12-11T04:15:01.890Z,12.57
2022-12-11T04:16:06.055Z,12.30
2022-12-11T04:17:08.968Z,9.32
2022-12-11T04:18:29.609Z,12.77
2022-12-11T04:19:49.876Z,12.68
2022-12-11T04:21:12.336Z,13.57
2022-12-11T04:22:34.966Z,13.35
2022-12-11T04:23:55.555Z,13.55
2022-12-11T04:24:58.688Z,15.13
2022-12-11T04:26:04.512Z,10.93
2022-12-11T04:27:07.934Z,11.80
2022-12-11T04:28:10.067Z,13.48
2022-12-11T04:29:13.447Z,12.60
2022-12-11T04:30:18.699Z,10.95
2022-12-11T04:31:23.818Z,12.55
2022-12-11T04:32:25.783Z,14.50
2022-12-11T04:33:29.055Z,12.48
2022-12-11T04:34:31.101Z,12.60
2022-12-11T04:35:34.065Z,11.98
2022-12-11T04:36:36.049Z,15.27
2022-12-11T04:37:39.420Z,11.25
2022-12-11T04:38:41.556Z,12.85
2022-12-11T04:39:44.493Z,15.68
2022-12-11T04:40:46.328Z,11.50
2022-12-11T04:41:49.232Z,15.95
2022-12-11T04:42:51.246Z,13.55
2022-12-11T04:43:54.143Z,13.40
2022-12-11T04:44:55.966Z,15.20
2022-12-11T04:46:03.309Z,12.30
2022-12-11T04:47:06.667Z,16.13
2022-12-11T04:48:09.596Z,13.38
2022-12-11T04:49:12.591Z,14.77
2022-12-11T04:50:16.328Z,13.25
2022-12-11T04:51:18.776Z,17.08
2022-12-11T04:52:21.813Z,14.85
2022-12-11T04:53:23.987Z,17.55
2022-12-11T04:54:26.816Z,12.43
2022-12-11T04:55:28.697Z,17.75
2022-12-11T04:56:31.630Z,15.45
2022-12-11T04:57:33.638Z,14.05
2022-12-11T04:58:37.589Z,13.80
2022-12-11T04:59:39.519Z,14.30
2022-12-11T05:00:42.909Z,14.20
2022-12-11T05:01:44.807Z,13.30
2022-12-11T05:02:49.158Z,11.48
2022-12-11T05:03:51.220Z,12.65
2022-12-11T05:04:54.159Z,12.60
2022-12-11T05:05:55.971Z,12.02
2022-12-11T05:06:58.921Z,13.95
2022-12-11T05:08:00.951Z,14.00
2022-12-11T05:09:03.879Z,11.73
2022-12-11T05:10:06.975Z,11.07
2022-12-11T05:11:11.745Z,12.25
2022-12-11T05:12:13.590Z,13.75
2022-12-11T05:13:16.447Z,10.80
2022-12-11T05:14:18.475Z,15.77
2022-12-11T05:15:21.390Z,11.15
2022-12-11T05:16:23.320Z,14.00
2022-12-11T05:17:26.210Z,14.05
2022-12-11T05:18:29.587Z,9.93
2022-12-11T05:19:32.559Z,11.15
2022-12-11T05:20:35.433Z,11.13
2022-12-11T05:21:38.606Z,13.50
2022-12-11T05:22:41.532Z,10.98
2022-12-11T05:23:43.809Z,13.02
2022-12-11T05:24:46.685Z,12.00
2022-12-11T05:25:52.263Z,12.20
2022-12-11T05:26:55.159Z,11.90
2022-12-11T05:27:59.603Z,12.73
2022-12-11T05:29:02.494Z,16.23
2022-12-11T05:30:05.408Z,12.82
2022-12-11T05:31:12.811Z,13.90
2022-12-11T05:32:14.899Z,13.13
2022-12-11T05:33:18.818Z,16.05
2022-12-11T05:34:23.118Z,12.27
2022-12-11T05:35:25.229Z,17.02
2022-12-11T05:36:30.862Z,14.80
2022-12-11T05:37:33.382Z,12.50
2022-12-11T05:38:36.372Z,14.80
2022-12-11T05:39:38.469Z,13.45
2022-12-11T05:40:41.530Z,12.23
2022-12-11T05:41:43.424Z,12.38
2022-12-11T05:42:46.343Z,11.70
2022-12-11T05:43:48.563Z,16.58
2022-12-11T05:44:51.531Z,11.82
2022-12-11T05:45:53.826Z,13.75
2022-12-11T05:46:56.761Z,15.45
2022-12-11T05:47:58.646Z,13.52
2022-12-11T05:49:02.920Z,12.98
2022-12-11T05:50:07.182Z,13.10
2022-12-11T05:51:10.630Z,12.25
2022-12-11T05:52:12.538Z,12.85
2022-12-11T05:53:15.411Z,13.77
2022-12-11T05:54:17.823Z,16.67
2022-12-11T05:55:20.743Z,12.68
2022-12-11T05:56:24.116Z,16.08
2022-12-11T05:57:26.967Z,13.63
2022-12-11T05:58:28.841Z,13.70
2022-12-11T05:59:31.683Z,11.60
2022-12-11T06:00:36.185Z,13.30
2022-12-11T06:01:41.615Z,15.43
2022-12-11T06:02:43.748Z,12.18
2022-12-11T06:03:46.794Z,14.15
2022-12-11T06:04:48.874Z,12.95
2022-12-11T06:05:53.152Z,14.00
2022-12-11T06:06:55.257Z,15.52
2022-12-11T06:07:58.364Z,14.52
2022-12-11T06:09:01.112Z,15.45
2022-12-11T06:10:04.007Z,13.45
2022-12-11T06:11:06.782Z,14.10
2022-12-11T06:12:09.681Z,15.68
2022-12-11T06:13:11.714Z,14.23
2022-12-11T06:14:14.947Z,13.18
2022-12-11T06:15:17.062Z,17.42
2022-12-11T06:16:20.370Z,13.30
2022-12-11T06:17:22.286Z,16.20
2022-12-11T06:18:25.263Z,15.52
2022-12-11T06:19:28.850Z,12.52
2022-12-11T06:20:36.239Z,14.07
2022-12-11T06:21:40.507Z,14.98
2022-12-11T06:22:42.388Z,20.08
2022-12-11T06:23:46.850Z,13.77
2022-12-11T06:24:48.848Z,13.00
2022-12-11T06:25:51.667Z,13.75
2022-12-11T06:26:53.490Z,12.10
2022-12-11T06:27:56.407Z,12.85
2022-12-11T06:28:58.442Z,10.80
2022-12-11T06:30:01.458Z,15.32
2022-12-11T06:31:03.932Z,13.43
2022-12-11T06:32:06.955Z,11.20
2022-12-11T06:33:08.879Z,17.05
2022-12-11T06:34:14.196Z,15.02
2022-12-11T06:35:16.372Z,13.35
2022-12-11T06:36:21.954Z,16.35
2022-12-11T06:37:25.199Z,13.38
2022-12-11T06:38:28.192Z,12.52
2022-12-11T06:39:30.240Z,13.90
2022-12-11T06:40:33.298Z,11.95
2022-12-11T06:41:35.268Z,13.65
2022-12-11T06:42:38.871Z,15.25
2022-12-11T06:43:42.895Z,15.23
2022-12-11T06:44:45.744Z,11.75
2022-12-11T06:45:48.179Z,12.70
2022-12-11T06:46:51.067Z,16.25
2022-12-11T06:47:52.977Z,15.13
2022-12-11T06:48:55.839Z,13.40
2022-12-11T06:49:57.927Z,14.98
2022-12-11T06:51:00.920Z,11.75
2022-12-11T06:52:02.915Z,12.35
2022-12-11T06:53:07.157Z,13.20
2022-12-11T06:54:10.034Z,13.63
2022-12-11T06:55:12.111Z,12.80
2022-12-11T06:56:16.558Z,14.05
2022-12-11T06:57:19.412Z,11.52
2022-12-11T06:58:22.300Z,15.70
2022-12-11T06:59:24.252Z,11.82
2022-12-11T07:00:27.267Z,13.50
2022-12-11T07:01:29.597Z,12.85
2022-12-11T07:02:32.857Z,13.20
2022-12-11T07:03:34.727Z,14.35
2022-12-11T07:04:37.674Z,14.20
2022-12-11T07:05:39.577Z,10.65
2022-12-11T07:06:42.471Z,11.93
2022-12-11T07:07:44.659Z,11.38
2022-12-11T07:08:48.916Z,13.10
2022-12-11T07:09:50.779Z,11.32
2022-12-11T07:10:53.667Z,15.95
2022-12-11T07:11:55.682Z,14.18
2022-12-11T07:12:58.591Z,12.57
2022-12-11T07:14:00.644Z,15.90
2022-12-11T07:15:03.884Z,12.68
2022-12-11T07:16:10.986Z,13.82
2022-12-11T07:17:14.067Z,14.75
2022-12-11T07:18:16.215Z,11.52
2022-12-11T07:19:19.218Z,12.70
2022-12-11T07:20:22.076Z,14.93
2022-12-11T07:21:24.895Z,10.15
2022-12-11T07:22:26.772Z,14.10
2022-12-11T07:23:30.087Z,12.52
2022-12-11T07:24:34.475Z,12.75
2022-12-11T07:25:37.163Z,15.75
2022-12-11T07:26:40.332Z,16.80
2022-12-11T07:27:42.488Z,13.55
2022-12-11T07:28:46.160Z,14.38
2022-12-11T07:29:48.062Z,11.20
2022-12-11T07:30:50.983Z,15.90
2022-12-11T07:31:53.058Z,12.80
2022-12-11T07:32:56.163Z,18.88
2022-12-11T07:34:01.429Z,15.23
2022-12-11T07:35:03.954Z,19.67
2022-12-11T07:36:10.349Z,14.82
2022-12-11T07:37:12.219Z,19.05
2022-12-11T07:38:15.200Z,14.48
2022-12-11T07:39:18.057Z,13.55
2022-12-11T07:40:21.273Z,15.10
2022-12-11T07:41:24.915Z,12.95
2022-12-11T07:42:30.690Z,12.75
2022-12-11T07:43:33.125Z,13.18
2022-12-11T07:44:36.099Z,13.70
2022-12-11T07:45:39.748Z,16.42
2022-12-11T07:46:42.823Z,14.55
2022-12-11T07:47:45.694Z,15.13
2022-12-11T07:48:48.252Z,12.15
2022-12-11T07:49:51.363Z,14.63
2022-12-11T07:50:54.294Z,16.30
2022-12-11T07:51:57.351Z,14.82
2022-12-11T07:53:00.211Z,16.08
2022-12-11T07:54:05.332Z,16.30
2022-12-11T07:55:07.509Z,14.10
2022-12-11T07:56:11.987Z,12.35
2022-12-11T07:57:14.437Z,14.88
2022-12-11T07:58:17.417Z,13.60
2022-12-11T07:59:21.052Z,16.30
2022-12-11T08:00:24.134Z,14.15
2022-12-11T08:01:27.872Z,14.52
2022-12-11T08:02:36.774Z,12.50
2022-12-11T08:03:40.932Z,12.05
2022-12-11T08:04:42.830Z,14.50
2022-12-11T08:05:49.951Z,13.40
2022-12-11T08:06:51.908Z,10.77
2022-12-11T08:07:54.808Z,13.75
2022-12-11T08:08:58.128Z,13.23
2022-12-11T08:10:01.004Z,15.75
2022-12-11T08:11:03.704Z,11.65
2022-12-11T08:12:08.135Z,17.50
2022-12-11T08:13:10.906Z,15.35
2022-12-11T08:14:13.882Z,17.85
2022-12-11T08:15:16.873Z,15.63
2022-12-11T08:16:19.405Z,16.52
2022-12-11T08:17:27.498Z,13.23
2022-12-11T08:18:33.203Z,12.32
2022-12-11T08:19:36.142Z,16.15
2022-12-11T08:20:38.616Z,14.35
2022-12-11T08:21:42.052Z,14.98
2022-12-11T08:22:44.948Z,14.45
2022-12-11T08:23:47.797Z,12.50
2022-12-11T08:24:50.665Z,14.73
2022-12-11T08:25:52.554Z,14.32
2022-12-11T08:26:55.729Z,13.45
2022-12-11T08:27:59.033Z,13.05
2022-12-11T08:29:02.558Z,14.60
2022-12-11T08:30:06.965Z,13.65
2022-12-11T08:31:12.107Z,17.77
2022-12-11T08:32:16.799Z,14.63
2022-12-11T08:33:18.733Z,16.15
2022-12-11T08:34:21.737Z,16.25
2022-12-11T08:35:23.926Z,13.25
2022-12-11T08:36:26.889Z,11.70
2022-12-11T08:37:30.466Z,14.68
2022-12-11T08:38:32.398Z,14.93
2022-12-11T08:39:35.321Z,12.82
2022-12-11T08:40:37.250Z,12.60
2022-12-11T08:41:40.237Z,14.52
2022-12-11T08:42:42.303Z,14.18
2022-12-11T08:43:46.868Z,16.35
2022-12-11T08:44:50.302Z,14.05
2022-12-11T08:45:52.201Z,12.45
2022-12-11T08:46:55.210Z,12.32
2022-12-11T08:47:58.455Z,16.40
2022-12-11T08:49:01.385Z,13.82
2022-12-11T08:50:05.196Z,13.65
2022-12-11T08:51:10.989Z,13.45
2022-12-11T08:52:13.881Z,13.75
2022-12-11T08:53:15.775Z,13.43
2022-12-11T08:54:18.717Z,15.48
2022-12-11T08:55:22.225Z,14.68
2022-12-11T08:56:25.855Z,12.15
2022-12-11T08:57:29.025Z,14.23
2022-12-11T08:58:31.154Z,12.57
2022-12-11T08:59:35.606Z,14.65
2022-12-11T09:00:37.863Z,13.13
2022-12-11T09:01:40.837Z,14.98
2022-12-11T09:02:42.775Z,14.75
2022-12-11T09:03:45.886Z,13.98
2022-12-11T09:04:47.801Z,13.55
2022-12-11T09:05:50.895Z,15.13
2022-12-11T09:06:53.835Z,11.98
2022-12-11T09:07:55.793Z,11.27
2022-12-11T09:09:01.020Z,11.35
2022-12-11T09:10:04.550Z,15.15
2022-12-11T09:11:08.938Z,13.82
2022-12-11T09:12:13.925Z,10.27
2022-12-11T09:13:15.839Z,12.57
2022-12-11T09:14:18.701Z,15.77
2022-12-11T09:15:21.948Z,12.13
2022-12-11T09:16:26.749Z,12.95
2022-12-11T09:17:29.571Z,11.60
2022-12-11T09:18:31.456Z,11.25
2022-12-11T09:19:34.302Z,11.88
2022-12-11T09:20:38.454Z,11.95
2022-12-11T09:21:42.994Z,10.90
2022-12-11T09:22:44.957Z,11.07
2022-12-11T09:23:48.754Z,13.20
2022-12-11T09:24:51.623Z,12.07
2022-12-11T09:25:53.613Z,13.77
2022-12-11T09:26:56.539Z,17.65
2022-12-11T09:27:58.441Z,10.23
2022-12-11T09:29:04.630Z,13.82
2022-12-11T09:30:09.362Z,9.85
2022-12-11T09:31:15.137Z,13.55
2022-12-11T09:32:18.312Z,15.02
2022-12-11T09:33:20.260Z,12.05
2022-12-11T09:34:28.925Z,12.90
2022-12-11T09:35:31.459Z,11.05
2022-12-11T09:36:35.248Z,14.75
2022-12-11T09:37:38.190Z,13.75
2022-12-11T09:38:40.393Z,13.82
2022-12-11T09:39:43.391Z,11.63
2022-12-11T09:40:47.693Z,10.07
2022-12-11T09:41:56.861Z,11.85
2022-12-11T09:43:03.658Z,11.30
2022-12-11T09:44:19.025Z,11.48
2022-12-11T09:45:22.318Z,8.38
2022-12-11T09:46:30.575Z,9.10
2022-12-11T09:47:39.385Z,12.10
2022-12-11T09:48:44.579Z,9.43
2022-12-11T09:49:48.224Z,9.38
2022-12-11T09:50:54.952Z,9.20
2022-12-11T09:52:05.488Z,11.32
2022-12-11T09:53:14.134Z,8.27
2022-12-11T09:54:16.081Z,10.65
2022-12-11T09:55:24.207Z,10.38
2022-12-11T09:56:32.666Z,11.35
2022-12-11T09:57:44.385Z,10.68
2022-12-11T09:59:01.975Z,9.88
2022-12-11T10:00:17.060Z,8.73
2022-12-11T10:01:27.633Z,10.40
2022-12-11T10:02:43.561Z,9.35
2022-12-11T10:04:04.361Z,8.10
2022-12-11T10:05:18.848Z,9.10
2022-12-11T10:06:24.536Z,8.48
2022-12-11T10:07:36.126Z,10.65
2022-12-11T10:08:49.010Z,11.77
2022-12-11T10:10:01.031Z,9.88
2022-12-11T10:11:22.127Z,11.38
2022-12-11T10:12:37.921Z,8.68
2022-12-11T10:13:51.430Z,10.13
2022-12-11T10:15:13.412Z,11.07
2022-12-11T10:16:33.493Z,10.52
2022-12-11T10:17:41.691Z,10.77
2022-12-11T10:18:43.902Z,8.68
2022-12-11T10:19:46.914Z,12.02
2022-12-11T10:20:52.720Z,9.65
2022-12-11T10:21:56.174Z,9.75
2022-12-11T10:23:00.266Z,10.30
2022-12-11T10:24:11.242Z,11.25
2022-12-11T10:25:28.479Z,10.38
2022-12-11T10:26:31.931Z,8.38
2022-12-11T10:27:35.873Z,10.60
2022-12-11T10:28:38.816Z,9.95
2022-12-11T10:29:40.682Z,8.52
2022-12-11T10:30:49.839Z,12.73
2022-12-11T10:31:56.439Z,9.65
2022-12-11T10:33:08.811Z,9.40
2022-12-11T10:34:13.381Z,9.65
2022-12-11T10:35:21.865Z,10.38
2022-12-11T10:36:29.340Z,8.43
2022-12-11T10:37:31.350Z,8.57
2022-12-11T10:38:36.800Z,9.45
2022-12-11T10:39:39.775Z,10.48
2022-12-11T10:40:44.381Z,9.75
2022-12-11T10:41:49.577Z,8.55
2022-12-11T10:42:53.275Z,9.77
2022-12-11T10:43:56.257Z,10.27
2022-12-11T10:45:00.441Z,12.23
2022-12-11T10:46:03.754Z,10.65
2022-12-11T10:47:11.202Z,11.75
2022-12-11T10:48:14.449Z,10.00
2022-12-11T10:49:26.348Z,8.70
2022-12-11T10:50:30.123Z,9.07
2022-12-11T10:51:37.555Z,11.88
2022-12-11T10:52:45.776Z,7.75
2022-12-11T10:53:51.595Z,8.57
2022-12-11T10:54:58.622Z,7.72
2022-12-11T10:56:01.988Z,7.93
2022-12-11T10:57:06.272Z,9.02
2022-12-11T10:58:18.979Z,9.40
2022-12-11T10:59:24.672Z,7.70
2022-12-11T11:00:35.563Z,9.45
2022-12-11T11:01:39.205Z,8.80
2022-12-11T11:02:42.681Z,9.80
2022-12-11T11:03:58.082Z,9.50
2022-12-11T11:05:12.019Z,6.90
2022-12-11T11:06:17.202Z,10.45
2022-12-11T11:07:23.729Z,9.25
2022-12-11T11:08:27.652Z,9.00
2022-12-11T11:09:32.808Z,10.25
2022-12-11T11:10:35.162Z,7.63
2022-12-11T11:11:39.597Z,8.48
2022-12-11T11:12:44.259Z,10.15
2022-12-11T11:13:47.284Z,8.40
2022-12-11T11:15:01.513Z,9.90
2022-12-11T11:16:06.750Z,12.00
2022-12-11T11:17:16.551Z,10.35
2022-12-11T11:18:27.016Z,8.40
2022-12-11T11:19:34.488Z,7.03
2022-12-11T11:20:37.521Z,8.57
2022-12-11T11:21:51.211Z,7.13
2022-12-11T11:22:57.062Z,7.78
2022-12-11T11:23:59.038Z,9.52
2022-12-11T11:25:02.599Z,10.38
2022-12-11T11:26:09.058Z,6.65
2022-12-11T11:27:27.102Z,9.55
2022-12-11T11:28:34.078Z,8.38
2022-12-11T11:29:37.824Z,8.32
2022-12-11T11:30:42.996Z,9.27
2022-12-11T11:31:46.007Z,8.48
2022-12-11T11:32:50.599Z,8.35
2022-12-11T11:33:57.615Z,9.07
2022-12-11T11:35:19.761Z,10.45
2022-12-11T11:36:24.767Z,6.75
2022-12-11T11:37:33.138Z,7.20
2022-12-11T11:38:38.639Z,9.45
2022-12-11T11:39:45.110Z,7.80
2022-12-11T11:40:59.419Z,9.30
2022-12-11T11:42:11.482Z,8.40
2022-12-11T11:43:19.497Z,9.07
2022-12-11T11:44:29.976Z,7.60
2022-12-11T11:45:39.571Z,7.70
2022-12-11T11:46:50.385Z,7.20
2022-12-11T11:48:06.277Z,7.32
2022-12-11T11:49:19.973Z,10.32
2022-12-11T11:50:28.410Z,7.93
2022-12-11T11:51:35.332Z,7.63
2022-12-11T11:52:44.233Z,8.40
2022-12-11T11:53:50.901Z,7.13
2022-12-11T11:55:06.354Z,6.20
2022-12-11T11:56:21.287Z,7.25
2022-12-11T11:57:30.631Z,6.55
2022-12-11T11:58:40.247Z,7.70
2022-12-11T11:59:49.249Z,5.97
2022-12-11T12:00:55.389Z,7.90
2022-12-11T12:01:59.610Z,7.25
2022-12-11T12:03:06.209Z,7.70
2022-12-11T12:04:09.392Z,5.55
2022-12-11T12:05:14.148Z,6.47
2022-12-11T12:06:29.152Z,10.38
2022-12-11T12:07:40.425Z,8.70
2022-12-11T12:08:46.240Z,6.25
2022-12-11T12:09:59.221Z,6.18
2022-12-11T12:11:07.947Z,6.90
2022-12-11T12:12:25.529Z,9.35
2022-12-11T12:13:51.244Z,9.82
2022-12-11T12:15:08.488Z,5.80
2022-12-11T12:16:51.142Z,6.70
2022-12-11T12:17:55.444Z,6.95
2022-12-11T12:19:04.911Z,7.22
2022-12-11T12:20:19.112Z,8.90
2022-12-11T12:21:32.151Z,5.38
2022-12-11T12:22:52.618Z,6.38
2022-12-11T12:24:10.543Z,7.93
2022-12-11T12:25:20.929Z,7.65
2022-12-11T12:26:28.924Z,6.85
2022-12-11T12:27:52.155Z,8.32
2022-12-11T12:29:09.540Z,9.70
2022-12-11T12:30:22.073Z,6.72
2022-12-11T12:31:49.577Z,6.88
2022-12-11T12:33:05.787Z,6.15
2022-12-11T12:34:21.601Z,6.88
2022-12-11T12:35:35.262Z,5.15
2022-12-11T12:36:47.215Z,5.55
2022-12-11T12:37:58.433Z,6.90
2022-12-11T12:39:03.652Z,6.82
2022-12-11T12:41:49.952Z,6.68
2022-12-11T12:43:01.240Z,7.70
2022-12-11T12:44:16.428Z,5.90
2022-12-11T12:45:29.507Z,6.55
2022-12-11T12:46:45.409Z,5.90
2022-12-11T12:47:53.185Z,6.72
2022-12-11T12:48:59.766Z,7.93
2022-12-11T12:50:04.577Z,5.07
2022-12-11T12:51:07.116Z,6.72
2022-12-11T12:52:17.118Z,5.95
2022-12-11T12:53:24.381Z,7.78
2022-12-11T12:54:30.408Z,7.20
2022-12-11T12:55:35.931Z,6.72
2022-12-11T12:56:40.592Z,5.45
2022-12-11T12:57:48.896Z,7.30
2022-12-11T12:58:51.881Z,8.30
2022-12-11T12:59:54.816Z,7.43
2022-12-11T13:01:08.920Z,8.18
2022-12-11T13:02:17.630Z,6.25
2022-12-11T13:03:22.047Z,7.07
2022-12-11T13:06:03.246Z,6.25
2022-12-11T13:07:17.492Z,6.47
2022-12-11T13:08:26.661Z,6.10
2022-12-11T13:09:29.721Z,5.28
2022-12-11T13:10:34.713Z,10.52
2022-12-11T13:11:36.769Z,8.05
2022-12-11T13:12:45.586Z,6.10
2022-12-11T13:13:54.978Z,6.07
2022-12-11T13:14:57.817Z,6.15
2022-12-11T13:16:23.468Z,6.72
2022-12-11T13:17:35.145Z,4.60
2022-12-11T13:18:39.653Z,5.00
2022-12-11T13:19:42.862Z,7.50
2022-12-11T13:20:51.071Z,6.38
2022-12-11T13:21:58.281Z,5.43
2022-12-11T13:23:26.969Z,5.80
2022-12-11T13:24:31.998Z,5.30
2022-12-11T13:25:49.650Z,4.75
2022-12-11T13:26:53.455Z,5.50
2022-12-11T13:28:05.743Z,5.72
2022-12-11T13:29:29.536Z,7.18
2022-12-11T13:30:32.711Z,6.22
2022-12-11T13:31:37.725Z,5.30
2022-12-11T13:32:42.496Z,6.55
2022-12-11T13:33:47.889Z,8.15
2022-12-11T13:34:54.809Z,6.55
2022-12-11T13:36:21.353Z,7.03
2022-12-11T13:37:31.814Z,6.30
2022-12-11T13:38:37.547Z,7.05
2022-12-11T13:39:41.283Z,4.28
2022-12-11T13:40:44.942Z,6.38
2022-12-11T13:41:53.470Z,7.88
2022-12-11T13:42:59.447Z,6.65
2022-12-11T13:44:03.280Z,8.52
2022-12-11T13:45:06.886Z,5.53
2022-12-11T13:46:12.251Z,6.10
2022-12-11T13:47:17.996Z,6.40
2022-12-11T13:48:25.574Z,5.53
2022-12-11T13:49:34.915Z,6.00
2022-12-11T13:50:37.025Z,5.30
2022-12-11T13:51:40.005Z,6.10
2022-12-11T13:52:43.526Z,7.22
2022-12-11T13:53:48.145Z,5.68
2022-12-11T13:54:52.845Z,6.15
2022-12-11T13:55:58.430Z,5.32
2022-12-11T13:57:04.665Z,6.93
2022-12-11T13:58:17.385Z,5.30
2022-12-11T13:59:28.309Z,7.20
2022-12-11T14:00:33.559Z,8.48
2022-12-11T14:01:36.826Z,6.30
2022-12-11T14:02:42.624Z,5.22
2022-12-11T14:03:54.041Z,7.20
2022-12-11T14:05:00.043Z,5.43
2022-12-11T14:06:03.258Z,5.35
2022-12-11T14:07:08.852Z,6.55
2022-12-11T14:08:20.908Z,5.43
2022-12-11T14:09:27.969Z,5.55
2022-12-11T14:10:33.597Z,8.27
2022-12-11T14:11:37.718Z,6.07
2022-12-11T14:12:45.548Z,5.13
2022-12-11T14:13:50.614Z,7.50
2022-12-11T14:14:57.036Z,6.18
2022-12-11T14:15:59.191Z,6.03